Time,TemperatureF,DewpointF,PressureIn,WindDirection,WindDirectionDegrees,WindSpeedMPH,WindSpeedGustMPH,Humidity,HourlyPrecipIn,Conditions,Clouds,dailyrainin,SolarRadiationWatts/m^2,SoftwareType,DateUTC
2013-11-09 00:00:00,57.8,51.0,30.12,NNE,22,2.0,5.0,78,0.00,,,0.00,0.00,VWS V14.00,2013-11-09 06:00:00,
2013-11-09 00:15:00,58.0,50.8,30.12,NE,45,3.0,6.0,77,0.00,,,0.00,0.00,VWS V14.00,2013-11-09 06:15:00,
2013-11-09 00:30:00,57.8,50.7,30.11,NE,45,2.0,5.0,77,0.00,,,0.00,0.00,VWS V14.00,2013-11-09 06:30:00,
2013-11-09 00:45:00,57.3,50.5,30.11,NE,45,2.0,7.0,78,0.00,,,0.00,0.00,VWS V14.00,2013-11-09 06:45:00,
2013-11-09 01:00:00,57.4,50.6,30.11,NE,45,3.0,7.0,78,0.00,,,0.00,0.00,VWS V14.00,2013-11-09 07:00:00,
2013-11-09 01:15:00,57.0,50.6,30.10,NE,45,2.0,6.0,79,0.00,,,0.00,0.00,VWS V14.00,2013-11-09 07:15:00,
2013-11-09 01:30:00,56.7,50.3,30.09,NE,45,2.0,6.0,79,0.00,,,0.00,0.00,VWS V14.00,2013-11-09 07:30:00,
2013-11-09 01:45:00,56.5,50.1,30.09,NE,45,2.0,6.0,79,0.00,,,0.00,0.00,VWS V14.00,2013-11-09 07:45:00,
2013-11-09 02:00:00,56.7,49.9,30.09,NE,45,2.0,6.0,78,0.00,,,0.00,0.00,VWS V14.00,2013-11-09 08:00:00,
2013-11-09 02:15:00,56.5,49.7,30.09,NE,45,2.0,5.0,78,0.00,,,0.00,0.00,VWS V14.00,2013-11-09 08:15:00,
2013-11-09 02:30:00,56.8,50.0,30.08,ENE,68,2.0,5.0,78,0.00,,,0.00,0.00,VWS V14.00,2013-11-09 08:30:00,
2013-11-09 02:45:00,56.3,49.9,30.07,NE,45,2.0,5.0,79,0.00,,,0.00,0.00,VWS V14.00,2013-11-09 08:45:00,
2013-11-09 03:00:00,55.5,49.4,30.07,NE,45,2.0,5.0,80,0.00,,,0.00,0.00,VWS V14.00,2013-11-09 09:00:00,
2013-11-09 03:15:00,55.3,49.6,30.07,NNE,22,2.0,6.0,81,0.00,,,0.00,0.00,VWS V14.00,2013-11-09 09:15:00,
2013-11-09 03:30:00,55.7,50.3,30.07,NNE,22,1.0,5.0,82,0.00,,,0.00,0.00,VWS V14.00,2013-11-09 09:30:00,
2013-11-09 03:45:00,55.9,50.2,30.07,ENE,68,2.0,4.0,81,0.00,,,0.00,0.00,VWS V14.00,2013-11-09 09:45:00,
2013-11-09 04:00:00,55.9,50.5,30.06,NE,45,1.0,5.0,82,0.00,,,0.00,0.00,VWS V14.00,2013-11-09 10:00:00,
2013-11-09 04:15:00,56.0,50.9,30.07,NE,45,1.0,4.0,83,0.00,,,0.00,0.00,VWS V14.00,2013-11-09 10:15:00,
2013-11-09 04:30:00,56.4,51.3,30.07,NE,45,1.0,6.0,83,0.00,,,0.00,0.00,VWS V14.00,2013-11-09 10:30:00,
2013-11-09 04:45:00,56.7,51.9,30.07,NNE,22,1.0,5.0,84,0.00,,,0.00,0.00,VWS V14.00,2013-11-09 10:45:00,
2013-11-09 05:00:00,56.9,51.5,30.06,NNE,22,2.0,5.0,82,0.00,,,0.00,0.00,VWS V14.00,2013-11-09 11:00:00,
2013-11-09 05:15:00,56.0,50.9,30.07,NE,45,1.0,4.0,83,0.00,,,0.00,0.00,VWS V14.00,2013-11-09 11:15:00,
2013-11-09 05:35:00,55.8,51.0,30.07,NE,45,1.0,4.0,84,0.00,,,0.00,0.00,VWS V14.00,2013-11-09 11:35:00,
2013-11-09 05:45:00,55.8,51.4,30.08,NNE,22,2.0,4.0,85,0.00,,,0.00,0.00,VWS V14.00,2013-11-09 11:45:00,
2013-11-09 06:00:00,55.8,51.4,30.08,NE,45,1.0,5.0,85,0.00,,,0.00,0.00,VWS V14.00,2013-11-09 12:00:00,
2013-11-09 06:15:00,56.0,51.6,30.08,NE,45,1.0,5.0,85,0.00,,,0.00,0.00,VWS V14.00,2013-11-09 12:15:00,
2013-11-09 06:30:00,56.1,51.7,30.09,ENE,68,2.0,4.0,85,0.00,,,0.00,0.00,VWS V14.00,2013-11-09 12:30:00,
2013-11-09 06:45:00,56.1,51.7,30.09,ENE,68,2.0,7.0,85,0.00,,,0.00,4.00,VWS V14.00,2013-11-09 12:45:00,
2013-11-09 07:00:00,56.2,51.8,30.09,ENE,68,2.0,5.0,85,0.00,,,0.00,8.00,VWS V14.00,2013-11-09 13:00:00,
2013-11-09 07:15:00,56.6,52.5,30.09,NE,45,2.0,6.0,86,0.00,,,0.00,21.00,VWS V14.00,2013-11-09 13:15:00,
2013-11-09 07:30:00,57.3,53.2,30.10,NE,45,2.0,7.0,86,0.00,,,0.00,38.00,VWS V14.00,2013-11-09 13:30:00,
2013-11-09 07:45:00,57.8,53.3,30.11,NNE,22,2.0,5.0,85,0.00,,,0.00,62.00,VWS V14.00,2013-11-09 13:45:00,
2013-11-09 08:00:00,58.7,54.5,30.11,NE,45,2.0,5.0,86,0.00,,,0.00,83.00,VWS V14.00,2013-11-09 14:00:00,
2013-11-09 08:15:00,59.3,54.8,30.11,ENE,68,2.0,5.0,85,0.00,,,0.00,91.00,VWS V14.00,2013-11-09 14:15:00,
2013-11-09 08:30:00,60.1,55.3,30.11,NE,45,2.0,6.0,84,0.00,,,0.00,105.00,VWS V14.00,2013-11-09 14:30:00,
2013-11-09 08:45:00,60.9,56.0,30.12,NE,45,3.0,6.0,84,0.00,,,0.00,117.00,VWS V14.00,2013-11-09 14:45:00,
2013-11-09 09:00:00,61.7,56.5,30.12,NE,45,3.0,7.0,83,0.00,,,0.00,129.00,VWS V14.00,2013-11-09 15:00:00,
2013-11-09 09:15:00,62.7,57.1,30.12,ENE,68,3.0,6.0,82,0.00,,,0.00,157.00,VWS V14.00,2013-11-09 15:15:00,
2013-11-09 09:30:00,64.0,58.1,30.12,ENE,68,2.0,7.0,81,0.00,,,0.00,174.00,VWS V14.00,2013-11-09 15:30:00,
2013-11-09 09:45:00,65.0,58.3,30.13,NE,45,2.0,6.0,79,0.00,,,0.00,261.00,VWS V14.00,2013-11-09 15:45:00,
2013-11-09 10:00:00,66.4,59.0,30.13,ENE,68,2.0,9.0,77,0.00,,,0.00,362.00,VWS V14.00,2013-11-09 16:00:00,
2013-11-09 10:15:00,68.8,60.2,30.13,NE,45,3.0,11.0,74,0.00,,,0.00,620.00,VWS V14.00,2013-11-09 16:15:00,
2013-11-09 10:30:00,69.7,60.7,30.12,East,90,3.0,7.0,73,0.00,,,0.00,458.00,VWS V14.00,2013-11-09 16:30:00,
2013-11-09 10:45:00,70.4,61.0,30.12,ENE,68,2.0,7.0,72,0.00,,,0.00,377.00,VWS V14.00,2013-11-09 16:45:00,
2013-11-09 11:00:00,70.6,60.8,30.12,East,90,3.0,9.0,71,0.00,,,0.00,392.00,VWS V14.00,2013-11-09 17:00:00,
2013-11-09 11:15:00,71.0,61.1,30.11,East,90,3.0,10.0,71,0.00,,,0.00,383.00,VWS V14.00,2013-11-09 17:15:00,
2013-11-09 11:30:00,72.1,61.4,30.11,ESE,112,3.0,10.0,69,0.00,,,0.00,482.00,VWS V14.00,2013-11-09 17:30:00,
2013-11-09 11:45:00,72.4,62.1,30.10,ENE,68,3.0,9.0,70,0.00,,,0.00,481.00,VWS V14.00,2013-11-09 17:45:00,
2013-11-09 12:00:00,73.7,62.1,30.10,ESE,112,4.0,10.0,67,0.00,,,0.00,815.00,VWS V14.00,2013-11-09 18:00:00,
2013-11-09 12:15:00,74.2,62.5,30.09,East,90,4.0,11.0,67,0.00,,,0.00,863.00,VWS V14.00,2013-11-09 18:15:00,
2013-11-09 12:30:00,74.3,62.6,30.09,East,90,4.0,8.0,67,0.00,,,0.00,788.00,VWS V14.00,2013-11-09 18:30:00,
2013-11-09 12:45:00,74.9,62.8,30.08,East,90,4.0,12.0,66,0.00,,,0.00,850.00,VWS V14.00,2013-11-09 18:45:00,
2013-11-09 13:00:00,74.0,62.4,30.08,ESE,112,4.0,9.0,67,0.00,,,0.00,526.00,VWS V14.00,2013-11-09 19:00:00,
2013-11-09 13:15:00,73.0,62.7,30.08,East,90,3.0,11.0,70,0.00,,,0.00,340.00,VWS V14.00,2013-11-09 19:15:00,
2013-11-09 13:30:00,72.5,62.6,30.07,East,90,3.0,10.0,71,0.00,,,0.00,331.00,VWS V14.00,2013-11-09 19:30:00,
2013-11-09 13:45:00,72.5,62.2,30.07,East,90,3.0,7.0,70,0.00,,,0.00,354.00,VWS V14.00,2013-11-09 19:45:00,
2013-11-09 14:00:00,72.1,62.2,30.07,ESE,112,3.0,10.0,71,0.00,,,0.00,281.00,VWS V14.00,2013-11-09 20:00:00,
2013-11-09 14:15:00,72.2,63.1,30.07,East,90,3.0,9.0,73,0.00,,,0.00,297.00,VWS V14.00,2013-11-09 20:15:00,
2013-11-09 14:30:00,72.4,63.3,30.07,ESE,112,3.0,7.0,73,0.00,,,0.00,297.00,VWS V14.00,2013-11-09 20:30:00,
2013-11-09 14:45:00,72.1,62.6,30.07,East,98,6.0,8.0,72,0.00,,,0.00,304.00,VWS V14.00,2013-11-09 20:45:00,
2013-11-09 15:00:00,71.9,62.0,30.07,East,90,3.0,9.0,71,0.00,,,0.00,257.00,VWS V14.00,2013-11-09 21:00:00,
2013-11-09 15:15:00,71.8,62.3,30.06,East,90,3.0,9.0,72,0.00,,,0.00,233.00,VWS V14.00,2013-11-09 21:15:00,
2013-11-09 15:30:00,71.6,62.5,30.06,East,90,3.0,7.0,73,0.00,,,0.00,165.00,VWS V14.00,2013-11-09 21:30:00,
2013-11-09 15:45:00,71.0,61.9,30.06,ESE,112,3.0,10.0,73,0.00,,,0.00,124.00,VWS V14.00,2013-11-09 21:45:00,
2013-11-09 16:00:00,70.9,62.2,30.06,East,90,3.0,9.0,74,0.00,,,0.00,131.00,VWS V14.00,2013-11-09 22:00:00,
2013-11-09 16:15:00,70.8,62.5,30.06,East,90,3.0,9.0,75,0.00,,,0.00,127.00,VWS V14.00,2013-11-09 22:15:00,
2013-11-09 16:30:00,70.8,62.5,30.07,East,90,3.0,7.0,75,0.00,,,0.00,134.00,VWS V14.00,2013-11-09 22:30:00,
2013-11-09 16:45:00,70.6,62.7,30.07,ESE,112,2.0,7.0,76,0.00,,,0.00,74.00,VWS V14.00,2013-11-09 22:45:00,
2013-11-09 17:00:00,70.1,62.6,30.07,ESE,112,2.0,7.0,77,0.00,,,0.00,42.00,VWS V14.00,2013-11-09 23:00:00,
2013-11-09 17:15:00,69.8,62.6,30.07,East,90,2.0,5.0,78,0.00,,,0.00,23.00,VWS V14.00,2013-11-09 23:15:00,
2013-11-09 17:30:00,69.5,62.7,30.07,East,90,1.0,6.0,79,0.00,,,0.00,8.00,VWS V14.00,2013-11-09 23:30:00,
2013-11-09 17:45:00,69.2,62.8,30.07,ESE,112,1.0,4.0,80,0.00,,,0.00,0.00,VWS V14.00,2013-11-09 23:45:00,
2013-11-09 18:00:00,69.0,62.6,30.07,East,90,1.0,6.0,80,0.00,,,0.00,0.00,VWS V14.00,2013-11-10 00:00:00,
2013-11-09 18:15:00,68.7,62.6,30.08,ENE,68,0.0,5.0,81,0.00,,,0.00,0.00,VWS V14.00,2013-11-10 00:15:00,
2013-11-09 18:30:00,68.4,62.7,30.08,ENE,68,0.0,4.0,82,0.00,,,0.00,0.00,VWS V14.00,2013-11-10 00:30:00,
2013-11-09 18:45:00,68.3,62.6,30.08,NNE,22,1.0,5.0,82,0.00,,,0.00,0.00,VWS V14.00,2013-11-10 00:45:00,
2013-11-09 19:00:00,68.1,62.4,30.08,NE,45,1.0,6.0,82,0.00,,,0.00,0.00,VWS V14.00,2013-11-10 01:00:00,
2013-11-09 19:15:00,68.0,62.3,30.08,NE,45,1.0,6.0,82,0.00,,,0.00,0.00,VWS V14.00,2013-11-10 01:15:00,
2013-11-09 19:30:00,68.0,62.0,30.08,East,90,1.0,4.0,81,0.00,,,0.00,0.00,VWS V14.00,2013-11-10 01:30:00,
2013-11-09 19:45:00,68.0,62.0,30.09,East,90,1.0,3.0,81,0.00,,,0.00,0.00,VWS V14.00,2013-11-10 01:45:00,
2013-11-09 20:00:00,67.9,62.2,30.09,ENE,68,2.0,4.0,82,0.00,,,0.00,0.00,VWS V14.00,2013-11-10 02:00:00,
2013-11-09 20:15:00,67.8,62.1,30.10,ENE,68,1.0,6.0,82,0.00,,,0.00,0.00,VWS V14.00,2013-11-10 02:15:00,
2013-11-09 20:30:00,67.6,62.3,30.10,NE,45,2.0,7.0,83,0.00,,,0.00,0.00,VWS V14.00,2013-11-10 02:30:00,
2013-11-09 20:45:00,67.5,62.2,30.10,NE,45,2.0,6.0,83,0.00,,,0.00,0.00,VWS V14.00,2013-11-10 02:45:00,
2013-11-09 21:00:00,67.4,62.1,30.10,ENE,68,3.0,7.0,83,0.00,,,0.00,0.00,VWS V14.00,2013-11-10 03:00:00,
2013-11-09 21:15:00,67.4,62.1,30.11,NE,45,2.0,6.0,83,0.00,,,0.00,0.00,VWS V14.00,2013-11-10 03:15:00,
2013-11-09 21:30:00,67.3,62.3,30.11,NE,45,3.0,7.0,84,0.00,,,0.00,0.00,VWS V14.00,2013-11-10 03:30:00,
2013-11-09 21:45:00,67.3,62.3,30.11,NE,45,3.0,7.0,84,0.00,,,0.00,0.00,VWS V14.00,2013-11-10 03:45:00,
2013-11-09 22:00:00,67.1,62.1,30.11,NE,45,3.0,7.0,84,0.00,,,0.00,0.00,VWS V14.00,2013-11-10 04:00:00,
2013-11-09 22:15:00,67.0,62.0,30.11,NE,45,3.0,7.0,84,0.00,,,0.00,0.00,VWS V14.00,2013-11-10 04:15:00,
2013-11-09 22:30:00,66.8,61.8,30.11,NE,45,3.0,7.0,84,0.00,,,0.00,0.00,VWS V14.00,2013-11-10 04:30:00,
2013-11-09 22:45:00,66.9,61.9,30.11,NE,45,3.0,10.0,84,0.00,,,0.00,0.00,VWS V14.00,2013-11-10 04:45:00,
2013-11-09 23:00:00,66.9,61.9,30.11,NE,45,3.0,11.0,84,0.00,,,0.00,0.00,VWS V14.00,2013-11-10 05:00:00,
2013-11-09 23:15:00,66.7,61.7,30.11,NE,45,3.0,7.0,84,0.00,,,0.00,0.00,VWS V14.00,2013-11-10 05:15:00,
2013-11-09 23:30:00,66.7,61.7,30.11,NE,45,3.0,7.0,84,0.00,,,0.00,0.00,VWS V14.00,2013-11-10 05:30:00,
2013-11-09 23:45:00,66.6,61.6,30.11,NE,45,3.0,7.0,84,0.00,,,0.00,0.00,VWS V14.00,2013-11-10 05:45:00,